»·PEaware :: SWA206 KBUR-KLAS

SWA206 :: KBUR-KLAS

FLIGHT INFORMATION

Flight Status: Arrived
Operator:
Southwest Airlines
More flights by this operator :: More flights under this callsign
Pilot: Nick L. (7253)
Aircraft: BOEING 737-800
(B738)
More flights by this aircraft type
Origin: KBUR Bob Hope-Burbank
United States
Destination: KLAS Harry Reid Intl
United States
More flights between these airports :: More routes between these airports
Route: SLAPP2 MISEN RNDRZ1
File this flight plan on PilotEdge
Remarks: RMK / SIMBRIEF
Altitude:
(Current/Filed)
29,000ft
Speed:
(Current/Filed)
417kts
Departed: 27-Feb-21 04:27 PM
Arrived: 27-Feb-21 05:14 PM
Distance/Time
Traveled:
194nm/0:47
Distance/Time
To Go:
Arrived

Flight Plot

Page will automatically refresh every two minutes.

Flight plan parsing failed; only flown route is shown


Map Options




Map Legend


Flown Route
Filed Route
Departure Airport
Arrival Airport
Navaid (VOR, NDB)
Fix

Horizontal Profiles

Position Reports

Time Latitude Longitude Heading Altitude Ground
Speed
27-Feb-21 16:06 34.196842 -118.351952 179 786ft 0kts
27-Feb-21 16:07 34.196842 -118.351952 179 786ft 0kts
27-Feb-21 16:08 34.196842 -118.351952 179 786ft 0kts
27-Feb-21 16:09 34.196842 -118.351952 179 786ft 0kts
27-Feb-21 16:10 34.196842 -118.351952 179 786ft 0kts
27-Feb-21 16:11 34.196842 -118.351952 179 786ft 0kts
27-Feb-21 16:12 34.196842 -118.351952 179 786ft 0kts
27-Feb-21 16:13 34.196842 -118.351952 179 786ft 0kts
27-Feb-21 16:14 34.196842 -118.351952 179 786ft 0kts
27-Feb-21 16:15 34.196842 -118.351952 179 786ft 0kts
27-Feb-21 16:16 34.196843 -118.351952 179 786ft 0kts
27-Feb-21 16:17 34.196843 -118.351952 179 786ft 0kts
27-Feb-21 16:18 34.196843 -118.351952 179 786ft 0kts
27-Feb-21 16:19 34.197177 -118.351536 275 786ft 2kts
27-Feb-21 16:20 34.197169 -118.351457 275 786ft 0kts
27-Feb-21 16:21 34.197169 -118.351458 275 786ft 0kts
27-Feb-21 16:22 34.197174 -118.353146 270 786ft 7kts
27-Feb-21 16:23 34.197201 -118.354430 270 786ft 7kts
27-Feb-21 16:24 34.196473 -118.355454 167 786ft 10kts
27-Feb-21 16:25 34.194210 -118.355275 294 786ft 3kts
27-Feb-21 16:26 34.212005 -118.360360 346 1016ft 155kts
27-Feb-21 16:27 34.238154 -118.399095 283 3272ft 197kts
27-Feb-21 16:28 34.249091 -118.479931 296 5665ft 260kts
27-Feb-21 16:29 34.309498 -118.493008 39 9047ft 279kts
27-Feb-21 16:30 34.360234 -118.411641 51 11137ft 335kts
27-Feb-21 16:31 34.426402 -118.337608 8 14099ft 333kts
27-Feb-21 16:32 34.510710 -118.285565 35 16878ft 360kts
27-Feb-21 16:33 34.589546 -118.206197 34 19073ft 381kts
27-Feb-21 16:34 34.657896 -118.110818 62 19084ft 389kts
27-Feb-21 16:35 34.687500 -117.981599 77 20708ft 410kts
27-Feb-21 16:36 34.698977 -117.840308 81 22754ft 429kts
27-Feb-21 16:37 34.707282 -117.693460 83 24660ft 444kts
27-Feb-21 16:38 34.716403 -117.541897 77 26411ft 454kts
27-Feb-21 16:39 34.745640 -117.393862 67 28354ft 451kts
27-Feb-21 16:40 34.783921 -117.247774 68 29010ft 448kts
27-Feb-21 16:41 34.821920 -117.103696 68 29008ft 450kts
27-Feb-21 16:42 34.860802 -116.956110 69 29009ft 469kts
27-Feb-21 16:43 34.901469 -116.803944 65 29007ft 471kts
27-Feb-21 16:44 34.958462 -116.663062 51 29008ft 458kts
27-Feb-21 16:45 35.028903 -116.535640 48 29011ft 446kts
27-Feb-21 16:46 35.099720 -116.412881 42 29021ft 445kts
27-Feb-21 16:47 35.182691 -116.301421 39 29018ft 442kts
27-Feb-21 16:48 35.265007 -116.191697 41 27802ft 434kts
27-Feb-21 16:49 35.343548 -116.083248 41 25549ft 419kts
27-Feb-21 16:50 35.419745 -115.978201 41 23326ft 406kts
27-Feb-21 16:51 35.493049 -115.877124 41 21173ft 391kts
27-Feb-21 16:52 35.563757 -115.779323 42 19233ft 372kts
27-Feb-21 16:53 35.623129 -115.684211 48 18420ft 336kts
27-Feb-21 16:54 35.675341 -115.592286 48 17043ft 324kts
27-Feb-21 16:55 35.716934 -115.494067 61 15459ft 327kts
27-Feb-21 16:56 35.750920 -115.393058 61 14122ft 315kts
27-Feb-21 16:57 35.784452 -115.294499 61 12691ft 307kts
27-Feb-21 16:58 35.817222 -115.199494 61 11330ft 297kts
27-Feb-21 16:59 35.847604 -115.111537 61 10910ft 259kts
27-Feb-21 17:00 35.872186 -115.038462 61 10573ft 197kts
27-Feb-21 17:01 35.891616 -114.978770 61 9212ft 183kts
27-Feb-21 17:02 35.916060 -114.928671 5 7690ft 164kts
27-Feb-21 17:03 35.932227 -114.973278 271 6980ft 179kts
27-Feb-21 17:04 35.928557 -115.034296 271 6986ft 178kts
27-Feb-21 17:05 35.924629 -115.095418 271 6994ft 178kts
27-Feb-21 17:06 35.920469 -115.156577 272 6995ft 178kts
27-Feb-21 17:07 35.919932 -115.217685 276 6785ft 179kts
27-Feb-21 17:08 35.947568 -115.255692 335 5569ft 158kts
27-Feb-21 17:09 35.974907 -115.227676 35 4704ft 142kts
27-Feb-21 17:10 36.010919 -115.207121 24 3846ft 144kts
27-Feb-21 17:11 36.047154 -115.186438 22 2965ft 141kts
27-Feb-21 17:12 36.083066 -115.165926 22 2202ft 141kts
27-Feb-21 17:13 36.098860 -115.156891 28 2188ft 21kts
27-Feb-21 17:14 36.098905 -115.155085 114 2188ft 0kts

Navigation Log

Ident Type
Flight plan parsing failed, navigation log unavailable